createdAt,value
2019-05-02T00:03:45.628Z,73.85
2019-05-02T00:05:56.579Z,74.43
2019-05-02T00:08:07.632Z,74.99
2019-05-02T00:10:20.036Z,75.42
2019-05-02T00:12:32.731Z,75.77
2019-05-02T00:14:44.001Z,76.25
2019-05-02T00:16:54.877Z,76.34
2019-05-02T00:19:09.261Z,76.39
2019-05-02T00:21:18.902Z,76.08
2019-05-02T00:23:29.863Z,75.96
2019-05-02T00:25:40.705Z,76.25
2019-05-02T00:27:51.555Z,76.47
2019-05-02T00:30:05.206Z,76.75
2019-05-02T00:32:22.141Z,76.84
2019-05-02T00:34:30.984Z,76.97
2019-05-02T00:36:41.955Z,76.88
2019-05-02T00:38:52.788Z,76.87
2019-05-02T00:41:03.845Z,76.93
2019-05-02T00:43:14.691Z,76.98
2019-05-02T00:45:26.045Z,76.90
2019-05-02T00:47:42.167Z,77.15
2019-05-02T00:49:51.838Z,77.28
2019-05-02T00:52:03.814Z,77.52
2019-05-02T00:54:19.144Z,77.53
2019-05-02T00:56:27.528Z,77.53
2019-05-02T00:58:38.405Z,77.33
2019-05-02T01:00:53.137Z,77.00
2019-05-02T01:03:03.989Z,77.28
2019-05-02T01:05:14.827Z,77.66
2019-05-02T01:07:26.867Z,78.11
2019-05-02T01:09:42.338Z,78.25
2019-05-02T01:11:50.702Z,77.99
2019-05-02T01:14:01.582Z,77.74
2019-05-02T01:16:15.162Z,77.35
2019-05-02T01:18:25.599Z,77.61
2019-05-02T01:20:36.460Z,77.33
2019-05-02T01:22:52.148Z,77.41
2019-05-02T01:25:00.067Z,77.39
2019-05-02T01:27:12.932Z,77.28
2019-05-02T01:29:29.874Z,77.66
2019-05-02T01:31:43.082Z,77.70
2019-05-02T01:34:04.865Z,77.63
2019-05-02T01:36:23.527Z,77.70
2019-05-02T01:38:39.269Z,77.97
2019-05-02T01:40:53.105Z,77.96
2019-05-02T01:43:20.125Z,78.10
2019-05-02T01:45:32.668Z,78.15
2019-05-02T01:47:43.518Z,78.22
2019-05-02T01:49:57.237Z,78.41
2019-05-02T01:52:07.259Z,78.71
2019-05-02T01:54:18.153Z,78.93
2019-05-02T01:56:33.018Z,78.81
2019-05-02T01:58:41.746Z,78.88
2019-05-02T02:00:54.576Z,78.49
2019-05-02T02:03:09.185Z,78.43
2019-05-02T02:05:18.442Z,78.54
2019-05-02T02:07:29.286Z,78.70
2019-05-02T02:09:43.968Z,78.83
2019-05-02T02:11:52.898Z,79.12
2019-05-02T02:14:07.266Z,79.17
2019-05-02T02:16:16.668Z,79.06
2019-05-02T02:18:29.470Z,78.91
2019-05-02T02:20:54.410Z,78.87
2019-05-02T02:23:16.430Z,78.92
2019-05-02T02:25:32.322Z,79.13
2019-05-02T02:27:44.692Z,79.49
2019-05-02T02:29:55.534Z,79.61
2019-05-02T02:32:06.402Z,79.80
2019-05-02T02:34:21.412Z,79.81
2019-05-02T02:36:34.132Z,79.67
2019-05-02T02:38:44.662Z,79.33
2019-05-02T02:40:55.556Z,79.21
2019-05-02T02:43:29.982Z,78.99
2019-05-02T02:45:30.834Z,78.94
2019-05-02T02:47:41.681Z,78.65
2019-05-02T02:49:55.844Z,78.53
2019-05-02T02:52:06.903Z,78.48
2019-05-02T02:54:18.053Z,78.45
2019-05-02T02:56:34.382Z,78.26
2019-05-02T02:58:47.453Z,78.27
2019-05-02T03:00:54.724Z,78.01
2019-05-02T03:03:05.577Z,77.96
2019-05-02T03:05:18.754Z,77.79
2019-05-02T03:07:29.319Z,77.78
2019-05-02T03:09:40.262Z,77.64
2019-05-02T03:12:09.894Z,77.16
2019-05-02T03:14:22.742Z,77.01
2019-05-02T03:16:46.030Z,77.17
2019-05-02T03:18:48.470Z,77.07
2019-05-02T03:21:01.349Z,77.91
2019-05-02T03:23:15.163Z,78.01
2019-05-02T03:25:49.169Z,78.04
2019-05-02T03:27:40.419Z,78.37
2019-05-02T03:29:50.894Z,78.69
2019-05-02T03:32:13.446Z,79.10
2019-05-02T03:34:15.309Z,79.41
2019-05-02T03:36:30.643Z,79.09
2019-05-02T03:38:39.904Z,79.96
2019-05-02T03:40:50.878Z,80.20
2019-05-02T03:43:01.844Z,79.86
2019-05-02T03:45:12.797Z,79.53
2019-05-02T03:47:24.243Z,79.32
2019-05-02T03:49:41.099Z,78.71
2019-05-02T03:51:47.816Z,78.84
2019-05-02T03:54:07.189Z,78.91
2019-05-02T03:56:14.050Z,78.82
2019-05-02T03:58:24.567Z,79.07
2019-05-02T04:00:35.403Z,79.11
2019-05-02T04:02:59.602Z,79.06
2019-05-02T04:05:02.549Z,78.99
2019-05-02T04:07:12.793Z,78.65
2019-05-02T04:09:32.142Z,79.03
2019-05-02T04:11:40.978Z,79.40
2019-05-02T04:13:52.979Z,79.62
2019-05-02T04:16:14.673Z,79.81
2019-05-02T04:18:17.970Z,79.79
2019-05-02T04:20:29.205Z,79.90
2019-05-02T04:22:42.678Z,80.03
2019-05-02T04:24:55.140Z,80.01
2019-05-02T04:27:06.598Z,79.91
2019-05-02T04:29:17.587Z,79.92
2019-05-02T04:31:31.618Z,79.94
2019-05-02T04:33:41.262Z,79.89
2019-05-02T04:35:52.132Z,79.79
2019-05-02T04:38:12.002Z,79.60
2019-05-02T04:40:18.257Z,79.73
2019-05-02T04:42:29.419Z,79.63
2019-05-02T04:44:59.766Z,79.58
2019-05-02T04:47:02.689Z,79.33
2019-05-02T04:49:09.018Z,78.95
2019-05-02T04:51:20.469Z,78.63
2019-05-02T04:53:36.603Z,77.99
2019-05-02T04:55:52.464Z,77.53
2019-05-02T04:57:58.888Z,77.22
2019-05-02T05:00:11.782Z,76.59
2019-05-02T05:02:34.314Z,76.24
2019-05-02T05:04:41.907Z,76.29
2019-05-02T05:06:56.055Z,76.67
2019-05-02T05:09:03.995Z,76.44
2019-05-02T05:11:21.303Z,76.41
2019-05-02T05:13:29.115Z,75.54
2019-05-02T05:15:48.478Z,75.53
2019-05-02T05:17:52.835Z,75.09
2019-05-02T05:20:10.391Z,75.15
2019-05-02T05:22:18.409Z,74.54
2019-05-02T05:24:38.496Z,73.07
2019-05-02T05:26:51.906Z,72.61
2019-05-02T05:29:03.491Z,71.89
2019-05-02T05:31:16.478Z,70.83
2019-05-02T05:33:28.349Z,69.79
2019-05-02T05:35:43.269Z,68.43
2019-05-02T05:37:53.300Z,67.69
2019-05-02T05:40:05.012Z,66.71
2019-05-02T05:42:17.873Z,66.25
2019-05-02T05:44:32.674Z,66.10
2019-05-02T05:46:42.690Z,65.57
2019-05-02T05:48:53.777Z,64.10
2019-05-02T05:51:07.240Z,63.29
2019-05-02T05:53:21.373Z,60.84
2019-05-02T05:55:31.684Z,59.82
2019-05-02T05:57:42.874Z,60.32
2019-05-02T05:59:53.956Z,59.54
2019-05-02T06:02:05.531Z,59.68
2019-05-02T06:04:19.431Z,58.83
2019-05-02T06:06:30.445Z,57.94
2019-05-02T06:08:41.319Z,56.61
2019-05-02T06:10:52.365Z,55.64
2019-05-02T06:13:05.185Z,55.38
2019-05-02T06:15:16.253Z,55.50
2019-05-02T06:17:28.400Z,55.81
2019-05-02T06:19:39.974Z,55.81
2019-05-02T06:21:52.722Z,54.66
2019-05-02T06:24:03.612Z,53.81
2019-05-02T06:26:15.540Z,54.40
2019-05-02T06:28:26.708Z,54.14
2019-05-02T06:30:37.569Z,54.54
2019-05-02T06:32:49.988Z,54.94
2019-05-02T06:35:01.192Z,54.69
2019-05-02T06:37:13.425Z,56.23
2019-05-02T06:39:27.182Z,56.01
2019-05-02T06:41:37.616Z,55.08
2019-05-02T06:43:48.587Z,53.95
2019-05-02T06:45:59.548Z,54.07
2019-05-02T06:48:16.851Z,53.87
2019-05-02T06:50:24.865Z,52.67
2019-05-02T06:52:36.047Z,50.83
2019-05-02T06:54:46.885Z,49.34
2019-05-02T06:56:57.723Z,48.81
2019-05-02T06:59:13.180Z,46.18
2019-05-02T07:01:22.974Z,45.41
2019-05-02T07:03:33.998Z,44.15
2019-05-02T07:05:44.983Z,42.86
2019-05-02T07:07:55.881Z,44.55
2019-05-02T07:10:07.559Z,44.65
2019-05-02T07:12:18.536Z,45.44
2019-05-02T07:14:29.414Z,45.07
2019-05-02T07:16:54.454Z,42.75
2019-05-02T07:19:21.609Z,43.09
2019-05-02T07:21:33.730Z,42.67
2019-05-02T07:23:48.588Z,41.01
2019-05-02T07:26:00.154Z,41.41
2019-05-02T07:28:10.807Z,41.03
2019-05-02T07:30:22.133Z,39.90
2019-05-02T07:32:33.078Z,40.62
2019-05-02T07:34:47.783Z,39.79
2019-05-02T07:36:56.934Z,40.97
2019-05-02T07:39:09.599Z,38.93
2019-05-02T07:41:24.199Z,40.51
2019-05-02T07:43:33.402Z,39.77
2019-05-02T07:45:45.442Z,41.87
2019-05-02T07:47:56.995Z,41.40
2019-05-02T07:50:10.397Z,40.43
2019-05-02T07:52:21.048Z,39.42
2019-05-02T07:54:32.008Z,39.79
2019-05-02T07:56:42.891Z,39.54
2019-05-02T07:58:53.832Z,40.00
2019-05-02T08:01:08.183Z,38.72
2019-05-02T08:03:17.546Z,38.73
2019-05-02T08:05:28.404Z,39.60
2019-05-02T08:07:39.243Z,39.70
2019-05-02T08:09:50.188Z,40.13
2019-05-02T08:12:01.306Z,41.44
2019-05-02T08:14:12.242Z,41.87
2019-05-02T08:16:27.444Z,37.92
2019-05-02T08:18:35.890Z,39.11
2019-05-02T08:20:51.035Z,39.79
2019-05-02T08:22:59.704Z,38.94
2019-05-02T08:25:11.673Z,39.00
2019-05-02T08:27:29.119Z,38.80
2019-05-02T08:29:37.546Z,39.41
2019-05-02T08:31:49.967Z,39.44
2019-05-02T08:34:05.794Z,41.70
2019-05-02T08:36:13.775Z,39.43
2019-05-02T08:38:24.625Z,38.83
2019-05-02T08:40:35.488Z,39.04
2019-05-02T08:42:46.370Z,38.71
2019-05-02T08:45:01.040Z,38.39
2019-05-02T08:47:18.637Z,39.20
2019-05-02T08:49:23.097Z,40.34
2019-05-02T08:51:33.932Z,39.29
2019-05-02T08:53:52.002Z,39.46
2019-05-02T08:56:00.936Z,38.77
2019-05-02T08:58:14.564Z,41.61
2019-05-02T09:00:24.752Z,40.08
2019-05-02T09:02:41.580Z,38.65
2019-05-02T09:04:58.266Z,39.68
2019-05-02T09:07:01.324Z,40.49
2019-05-02T09:09:12.363Z,39.21
2019-05-02T09:11:23.411Z,40.61
2019-05-02T09:13:34.360Z,41.06
2019-05-02T09:15:51.002Z,41.86
2019-05-02T09:17:58.089Z,40.67
2019-05-02T09:20:15.086Z,39.55
2019-05-02T09:22:22.600Z,40.47
2019-05-02T09:24:33.540Z,40.70
2019-05-02T09:26:44.394Z,40.86
2019-05-02T09:28:56.196Z,40.88
2019-05-02T09:31:08.139Z,40.90
2019-05-02T09:33:19.165Z,40.05
2019-05-02T09:35:30.098Z,40.93
2019-05-02T09:37:41.953Z,40.52
2019-05-02T09:39:53.023Z,40.90
2019-05-02T09:42:06.661Z,41.23
2019-05-02T09:44:18.666Z,39.99
2019-05-02T09:46:29.615Z,39.54
2019-05-02T09:48:42.521Z,39.49
2019-05-02T09:50:53.356Z,39.70
2019-05-02T09:53:04.317Z,39.33
2019-05-02T09:55:15.879Z,39.09
2019-05-02T09:57:26.720Z,39.03
2019-05-02T09:59:37.581Z,40.87
2019-05-02T10:01:48.437Z,39.45
2019-05-02T10:03:59.437Z,40.10
2019-05-02T10:06:13.953Z,40.24
2019-05-02T10:08:23.241Z,40.87
2019-05-02T10:10:37.174Z,40.48
2019-05-02T10:12:46.973Z,40.46
2019-05-02T10:14:57.830Z,41.11
2019-05-02T10:17:08.851Z,39.23
2019-05-02T10:19:19.854Z,39.11
2019-05-02T10:21:31.858Z,39.16
2019-05-02T10:23:42.983Z,38.91
2019-05-02T10:25:53.829Z,40.47
2019-05-02T10:28:05.341Z,39.95
2019-05-02T10:30:19.075Z,38.93
2019-05-02T10:32:32.044Z,39.02
2019-05-02T10:34:47.453Z,38.52
2019-05-02T10:36:58.857Z,39.88
2019-05-02T10:39:08.530Z,39.41
2019-05-02T10:41:19.416Z,38.11
2019-05-02T10:43:30.346Z,39.40
2019-05-02T10:45:47.501Z,38.25
2019-05-02T10:47:57.198Z,37.06
2019-05-02T10:50:25.332Z,38.82
2019-05-02T10:52:36.167Z,38.55
2019-05-02T10:54:47.139Z,38.75
2019-05-02T10:56:57.992Z,39.19
2019-05-02T10:59:08.841Z,37.06
2019-05-02T11:01:21.922Z,37.92
2019-05-02T11:03:42.629Z,38.95
2019-05-02T11:05:53.010Z,39.16
2019-05-02T11:08:06.247Z,38.64
2019-05-02T11:10:16.759Z,38.13
2019-05-02T11:12:44.448Z,38.75
2019-05-02T11:14:51.647Z,36.51
2019-05-02T11:17:13.788Z,36.07
2019-05-02T11:19:25.491Z,36.71
2019-05-02T11:21:36.458Z,38.58
2019-05-02T11:23:47.462Z,38.15
2019-05-02T11:25:58.563Z,37.95
2019-05-02T11:28:09.645Z,37.86
2019-05-02T11:30:22.414Z,37.58
2019-05-02T11:32:33.487Z,38.57
2019-05-02T11:36:55.069Z,38.31
2019-05-02T11:39:17.104Z,37.16
2019-05-02T11:41:22.458Z,36.96
2019-05-02T11:43:37.240Z,37.39
2019-05-02T11:45:47.330Z,36.35
2019-05-02T11:48:03.383Z,37.51
2019-05-02T11:50:11.819Z,38.27
2019-05-02T11:52:27.429Z,38.80
2019-05-02T11:54:39.255Z,36.91
2019-05-02T11:56:49.464Z,37.23
2019-05-02T11:59:02.893Z,38.15
2019-05-02T12:01:14.076Z,38.14
2019-05-02T12:03:38.740Z,37.41
2019-05-02T12:05:49.582Z,37.21
2019-05-02T12:08:07.583Z,37.54
2019-05-02T12:10:13.387Z,39.01
2019-05-02T12:12:27.206Z,37.43
2019-05-02T12:14:37.062Z,38.81
2019-05-02T12:16:47.987Z,37.39
2019-05-02T12:19:09.448Z,37.80
2019-05-02T12:21:11.988Z,36.63
2019-05-02T12:23:22.886Z,39.10
2019-05-02T12:25:33.713Z,38.61
2019-05-02T12:27:44.586Z,39.39
2019-05-02T12:29:58.018Z,38.58
2019-05-02T12:32:08.236Z,38.20
2019-05-02T12:34:19.371Z,37.26
2019-05-02T12:36:30.303Z,38.07
2019-05-02T12:38:42.035Z,37.06
2019-05-02T12:40:53.000Z,39.32
2019-05-02T12:43:03.963Z,38.27
2019-05-02T12:45:14.914Z,38.25
2019-05-02T12:47:25.780Z,38.27
2019-05-02T12:49:36.647Z,38.92
2019-05-02T12:51:47.478Z,37.35
2019-05-02T12:53:58.370Z,36.09
2019-05-02T12:56:09.319Z,37.66
2019-05-02T12:58:21.871Z,37.79
2019-05-02T13:00:33.045Z,36.86
2019-05-02T13:03:02.026Z,37.20
2019-05-02T13:05:13.257Z,36.89
2019-05-02T13:07:24.231Z,37.12
2019-05-02T13:09:35.107Z,37.03
2019-05-02T13:11:47.880Z,35.73
2019-05-02T13:13:58.855Z,38.20
2019-05-02T13:16:12.043Z,38.30
2019-05-02T13:18:26.821Z,38.22
2019-05-02T13:20:38.256Z,36.56
2019-05-02T13:23:07.265Z,37.31
2019-05-02T13:25:20.067Z,37.81
2019-05-02T13:27:41.263Z,36.11
2019-05-02T13:29:43.886Z,36.00
2019-05-02T13:32:08.744Z,35.17
2019-05-02T13:34:31.811Z,35.78
2019-05-02T13:36:46.242Z,36.36
2019-05-02T13:38:57.215Z,36.48
2019-05-02T13:41:08.372Z,36.85
2019-05-02T13:43:21.815Z,35.81
2019-05-02T13:45:34.787Z,36.32
2019-05-02T13:47:45.643Z,37.62
2019-05-02T13:50:00.731Z,37.49
2019-05-02T13:52:11.704Z,37.08
2019-05-02T13:54:22.805Z,36.35
2019-05-02T13:56:47.586Z,36.76
2019-05-02T13:58:58.446Z,36.07
2019-05-02T14:01:11.697Z,35.11
2019-05-02T14:03:22.742Z,35.48
2019-05-02T14:05:35.631Z,34.72
2019-05-02T14:07:57.212Z,35.01
2019-05-02T14:10:24.655Z,33.98
2019-05-02T14:12:46.420Z,33.61
2019-05-02T14:14:57.416Z,33.26
2019-05-02T14:17:08.249Z,32.78
2019-05-02T14:19:19.094Z,35.29
2019-05-02T14:21:32.117Z,34.13
2019-05-02T14:23:42.888Z,34.79
2019-05-02T14:25:53.875Z,34.20
2019-05-02T14:28:04.854Z,33.13
2019-05-02T14:30:16.599Z,33.36
2019-05-02T14:32:27.609Z,33.52
2019-05-02T14:34:42.477Z,33.31
2019-05-02T14:36:58.871Z,35.72
2019-05-02T14:39:07.877Z,34.28
2019-05-02T14:41:21.795Z,34.91
2019-05-02T14:43:53.118Z,35.28
2019-05-02T14:46:03.585Z,35.90
2019-05-02T14:48:21.158Z,36.02
2019-05-02T14:50:28.594Z,35.57
2019-05-02T14:52:42.190Z,36.71
2019-05-02T14:54:55.506Z,36.98
2019-05-02T14:57:11.831Z,36.68
2019-05-02T14:59:22.887Z,37.79
2019-05-02T15:01:33.986Z,37.52
2019-05-02T15:03:44.867Z,37.44
2019-05-02T15:05:58.997Z,37.71
2019-05-02T15:08:11.821Z,37.91
2019-05-02T15:10:22.907Z,36.58
2019-05-02T15:12:33.771Z,37.54
2019-05-02T15:14:44.607Z,38.98
2019-05-02T15:16:58.345Z,38.75
2019-05-02T15:19:08.473Z,38.58
2019-05-02T15:21:22.797Z,39.14
2019-05-02T15:23:33.930Z,38.96
2019-05-02T15:25:47.194Z,40.10
2019-05-02T15:27:59.949Z,39.83
2019-05-02T15:30:10.985Z,38.72
2019-05-02T15:32:26.462Z,40.04
2019-05-02T15:34:56.022Z,38.17
2019-05-02T15:37:06.860Z,36.88
2019-05-02T15:41:32.607Z,36.68
2019-05-02T15:43:44.593Z,36.32
2019-05-02T15:45:56.406Z,36.16
2019-05-02T15:48:07.367Z,36.54
2019-05-02T15:50:23.839Z,36.79
2019-05-02T15:52:32.972Z,37.62
2019-05-02T15:54:44.107Z,38.05
2019-05-02T15:57:05.497Z,38.15
2019-05-02T15:59:07.755Z,39.78
2019-05-02T16:01:32.012Z,41.28
2019-05-02T16:03:46.188Z,43.69
2019-05-02T16:05:57.468Z,44.52
2019-05-02T16:08:09.081Z,45.55
2019-05-02T16:10:21.688Z,46.36
2019-05-02T16:12:36.008Z,47.31
2019-05-02T16:14:45.634Z,53.97
2019-05-02T16:16:56.453Z,59.45
2019-05-02T16:19:07.311Z,63.49
2019-05-02T16:21:28.413Z,66.79
2019-05-02T16:23:35.639Z,68.19
2019-05-02T16:25:45.935Z,68.56
2019-05-02T16:27:57.438Z,67.16
2019-05-02T16:30:12.833Z,67.14
2019-05-02T16:32:24.743Z,66.58
2019-05-02T16:34:54.734Z,67.95
2019-05-02T16:37:13.443Z,66.94
2019-05-02T16:39:23.171Z,69.27
2019-05-02T16:41:34.037Z,70.88
2019-05-02T16:43:44.976Z,70.09
2019-05-02T16:45:55.950Z,72.17
2019-05-02T16:48:06.822Z,74.25
2019-05-02T16:50:18.723Z,73.18
2019-05-02T16:52:29.725Z,74.24
2019-05-02T16:54:41.601Z,74.15
2019-05-02T16:56:53.481Z,73.17
2019-05-02T16:59:04.342Z,72.44
2019-05-02T17:01:24.566Z,72.96
2019-05-02T17:03:28.272Z,75.29
2019-05-02T17:05:43.602Z,75.22
2019-05-02T17:07:53.971Z,75.32
2019-05-02T17:10:19.052Z,74.23
2019-05-02T17:12:31.853Z,74.56
2019-05-02T17:14:51.582Z,75.06
2019-05-02T17:16:57.545Z,74.94
2019-05-02T17:19:08.519Z,76.67
2019-05-02T17:21:19.396Z,75.41
2019-05-02T17:23:30.287Z,76.96
2019-05-02T17:25:41.688Z,76.72
2019-05-02T17:28:00.215Z,76.53
2019-05-02T17:30:08.148Z,77.96
2019-05-02T17:32:19.056Z,77.31
2019-05-02T17:34:32.570Z,77.27
2019-05-02T17:36:45.636Z,77.68
2019-05-02T17:38:59.440Z,79.35
2019-05-02T17:41:08.673Z,79.91
2019-05-02T17:43:19.594Z,79.69
2019-05-02T17:45:33.556Z,79.54
2019-05-02T17:47:43.538Z,78.71
2019-05-02T17:49:57.425Z,77.89
2019-05-02T17:52:19.080Z,76.09
2019-05-02T17:54:26.296Z,75.90
2019-05-02T17:56:37.339Z,77.30
2019-05-02T17:58:54.295Z,76.79
2019-05-02T18:01:03.043Z,77.57
2019-05-02T18:03:15.489Z,78.22
2019-05-02T18:05:31.279Z,78.34
2019-05-02T18:07:39.401Z,78.90
2019-05-02T18:09:52.426Z,78.89
2019-05-02T18:12:07.164Z,79.22
2019-05-02T18:14:21.313Z,78.40
2019-05-02T18:16:29.419Z,78.73
2019-05-02T18:18:43.680Z,79.49
2019-05-02T18:20:53.194Z,79.00
2019-05-02T18:23:05.967Z,78.86
2019-05-02T18:25:23.603Z,78.09
2019-05-02T18:27:30.074Z,78.69
2019-05-02T18:29:42.638Z,79.04
2019-05-02T18:31:53.741Z,79.15
2019-05-02T18:34:04.643Z,78.37
2019-05-02T18:36:17.461Z,78.28
2019-05-02T18:38:28.429Z,77.92
2019-05-02T18:40:39.275Z,77.88
2019-05-02T18:42:51.786Z,78.06
2019-05-02T18:45:09.775Z,79.14
2019-05-02T18:47:24.506Z,78.72
2019-05-02T18:49:33.461Z,78.19
2019-05-02T18:51:48.253Z,78.92
2019-05-02T18:53:57.852Z,79.44
2019-05-02T18:56:10.172Z,79.36
2019-05-02T18:58:22.618Z,79.63
2019-05-02T19:00:38.388Z,77.58
2019-05-02T19:02:47.852Z,78.29
2019-05-02T19:04:58.836Z,79.50
2019-05-02T19:07:12.973Z,79.67
2019-05-02T19:09:28.608Z,79.70
2019-05-02T19:11:35.519Z,79.31
2019-05-02T19:13:46.366Z,80.64
2019-05-02T19:15:57.473Z,80.44
2019-05-02T19:18:10.564Z,80.42
2019-05-02T19:20:27.721Z,80.65
2019-05-02T19:22:48.211Z,80.21
2019-05-02T19:24:52.355Z,80.48
2019-05-02T19:27:04.034Z,80.47
2019-05-02T19:29:17.342Z,80.70
2019-05-02T19:31:32.020Z,79.25
2019-05-02T19:33:44.184Z,79.99
2019-05-02T19:35:55.343Z,80.23
2019-05-02T19:38:06.206Z,80.41
2019-05-02T19:40:26.878Z,79.67
2019-05-02T19:42:33.758Z,79.08
2019-05-02T19:44:44.616Z,79.62
2019-05-02T19:46:55.537Z,79.88
2019-05-02T19:49:06.947Z,79.22
2019-05-02T19:51:20.311Z,78.35
2019-05-02T19:53:32.727Z,78.71
2019-05-02T19:55:43.808Z,78.70
2019-05-02T19:57:56.660Z,78.29
2019-05-02T20:00:07.641Z,78.66
2019-05-02T20:02:18.632Z,78.27
2019-05-02T20:04:29.639Z,78.10
2019-05-02T20:06:41.829Z,77.64
2019-05-02T20:08:58.929Z,78.04
2019-05-02T20:11:05.910Z,78.20
2019-05-02T20:13:20.423Z,78.40
2019-05-02T20:15:32.821Z,78.01
2019-05-02T20:17:43.921Z,77.51
2019-05-02T20:19:57.855Z,77.03
2019-05-02T20:22:11.821Z,77.71
2019-05-02T20:24:24.750Z,77.35
2019-05-02T20:26:35.602Z,77.39
2019-05-02T20:28:46.498Z,78.00
2019-05-02T20:30:57.552Z,78.26
2019-05-02T20:33:08.556Z,78.31
2019-05-02T20:35:19.388Z,78.28
2019-05-02T20:37:32.362Z,78.79
2019-05-02T20:39:43.161Z,78.48
2019-05-02T20:41:54.024Z,78.10
2019-05-02T20:44:05.012Z,78.69
2019-05-02T20:46:15.943Z,80.07
2019-05-02T20:48:26.820Z,79.83
2019-05-02T20:50:37.690Z,80.08
2019-05-02T20:52:48.753Z,80.21
2019-05-02T20:55:01.731Z,80.51
2019-05-02T20:57:12.595Z,81.50
2019-05-02T20:59:23.567Z,82.02
2019-05-02T21:01:34.514Z,82.16
2019-05-02T21:03:45.543Z,82.55
2019-05-02T21:06:12.164Z,82.36
2019-05-02T21:08:28.149Z,82.35
2019-05-02T21:10:43.947Z,83.17
2019-05-02T21:12:55.101Z,83.12
2019-05-02T21:15:06.291Z,83.34
2019-05-02T21:17:17.198Z,83.43
2019-05-02T21:19:28.155Z,82.96
2019-05-02T21:21:40.718Z,82.82
2019-05-02T21:23:52.896Z,83.21
2019-05-02T21:26:04.057Z,82.77
2019-05-02T21:28:15.007Z,82.71
2019-05-02T21:30:26.286Z,82.94
2019-05-02T21:32:37.330Z,83.07
2019-05-02T21:34:48.205Z,83.11
2019-05-02T21:36:59.031Z,83.18
2019-05-02T21:39:11.896Z,82.92
2019-05-02T21:41:22.962Z,83.20
2019-05-02T21:43:33.964Z,83.32
2019-05-02T21:45:44.841Z,82.88
2019-05-02T21:47:55.688Z,83.04
2019-05-02T21:50:09.647Z,83.14
2019-05-02T21:52:39.057Z,83.18
2019-05-02T21:55:07.018Z,83.66
2019-05-02T21:57:19.263Z,83.72
2019-05-02T21:59:30.100Z,83.57
2019-05-02T22:01:45.784Z,83.76
2019-05-02T22:03:56.824Z,83.61
2019-05-02T22:06:07.805Z,83.19
2019-05-02T22:08:18.735Z,83.38
2019-05-02T22:10:29.607Z,84.20
2019-05-02T22:12:42.233Z,84.33
2019-05-02T22:14:55.107Z,83.71
2019-05-02T22:17:06.074Z,83.71
2019-05-02T22:19:17.013Z,83.63
2019-05-02T22:21:27.996Z,83.47
2019-05-02T22:23:38.995Z,83.86
2019-05-02T22:25:49.948Z,84.26
2019-05-02T22:28:01.953Z,84.52
2019-05-02T22:30:13.180Z,84.24
2019-05-02T22:32:24.166Z,84.29
2019-05-02T22:34:35.013Z,84.76
2019-05-02T22:36:45.894Z,84.87
2019-05-02T22:38:58.646Z,84.67
2019-05-02T22:41:09.501Z,84.76
2019-05-02T22:43:22.104Z,84.71
2019-05-02T22:45:33.042Z,84.94
2019-05-02T22:47:44.088Z,84.87
2019-05-02T22:49:54.974Z,84.70
2019-05-02T22:52:05.980Z,84.56
2019-05-02T22:54:26.826Z,84.35
2019-05-02T22:56:31.610Z,84.61
2019-05-02T22:58:42.485Z,84.74
2019-05-02T23:00:53.423Z,84.82
2019-05-02T23:03:04.399Z,84.96
2019-05-02T23:05:15.346Z,85.02
2019-05-02T23:07:26.249Z,84.37
2019-05-02T23:09:37.206Z,84.53
2019-05-02T23:11:48.155Z,84.80
2019-05-02T23:13:59.029Z,84.80
2019-05-02T23:16:09.881Z,84.54
2019-05-02T23:18:22.697Z,84.14
2019-05-02T23:20:33.487Z,84.37
2019-05-02T23:22:44.367Z,84.72
2019-05-02T23:24:57.109Z,84.62
2019-05-02T23:27:26.527Z,84.67
2019-05-02T23:29:37.376Z,84.95
2019-05-02T23:31:48.245Z,84.46
2019-05-02T23:33:59.111Z,83.81
2019-05-02T23:36:09.935Z,83.59
2019-05-02T23:38:21.777Z,84.11
2019-05-02T23:40:32.845Z,84.51
2019-05-02T23:42:43.734Z,84.41
2019-05-02T23:44:54.705Z,84.60
2019-05-02T23:47:05.565Z,84.59
2019-05-02T23:49:16.422Z,84.14
2019-05-02T23:51:27.285Z,84.46
2019-05-02T23:53:38.123Z,84.20
2019-05-02T23:55:49.101Z,84.42
2019-05-02T23:58:00.033Z,84.52
